Goetsenhoven, Belgium

4:14 PM CET on February 10, 2016 (GMT +0100)
IRGIONWA10 | | Change Station
CLOSE
Current Station
Personal Weather Station
Location: Jodoigne, ReGION WALLONNE
Elevation: 256 ft
Nearby Weather Stations

Elev 256 ft 50.73 °N, 4.87 °E | Updated 3 minutes ago

Mostly Cloudy
Mostly Cloudy
40.7 °F
Feels Like 41 °F
N
3.0
Wind Variable Wind from SW
Gusts 3.0 mph

Today
High -- | Low -- °F
--% Chance of Precip.
Yesterday
High -- | Low -- °F
Precip. -- in
Pressure 29.44 in
Visibility 6.2 miles
Clouds Scattered Clouds 2000 ft
Mostly Cloudy 3900 ft
Windchill 41 °F
Dew Point 39 °F
Humidity 92%
Rainfall 0.09 in
Snow Depth Not available.
8:02 AM 5:46 PM
Waxing Crescent, 6% visible
METAR EBBE 101455Z 25008KT 9999 SCT020 BKN039 05/03 Q0997 WHT BLU TEMPO WHT
Pressure 29.44 in
Visibility 6.2 miles
Clouds Scattered Clouds 2000 ft
Mostly Cloudy 3900 ft
Windchill 41 °F
Dew Point 39 °F
Humidity 92%
Rainfall 0.09 in
Snow Depth Not available.
8:02 AM 5:46 PM
Waxing Crescent, 6% visible
METAR EBBE 101455Z 25008KT 9999 SCT020 BKN039 05/03 Q0997 WHT BLU TEMPO WHT

10-Day Weather Forecast

Almanac

Astronomy

Feb. 10, 2016 Rise Set
Actual Time
Civil Twilight
Nautical Twilight
Astronomical Twilight
Moon
Length of Visible Light
Length of Day
Tomorrow will be .
, % of the Moon is Illuminated

Today's Extremes

Country Highs Country Lows

Community

WunderPhotos

Upload Photos

1,891,857 photos uploaded!

WunderBlog® & News

Nearby

Air Quality

  Air Quality AQ Index Pollutant
Not available.

Snow Depth

Station Depth Elevation

Earthquake Activity

City Distance Mag. Time & Date
Minimum magnitude displayed is 2.5.

Coastal Water Temperatures

Place Temperature

Stations

Nearby Weather Stations

Station Location Temp. Windchill Dew Point Humidity Wind Precip. Elev Updated Type